首页
METAR-TAF:

METAR-TAF

机场 :

卢克索国际机场

樂蜀, 埃及

纬度: 25-40N, 经度: 032-42E, 海拔: 93米

当前天气观测

该预报发布于36分钟前的02:00 UTC
风速3节,风向东南
温度 21°C
湿度 30%
气压 1010 hPa
能见度10公里或以上
1500米以下无云,无积雨云

METAR: HELX 170200Z 14003KT CAVOK 21/03 Q1010 NOSIG

时间: 04:36 (02:36 UTC)

预报

该预报发布于3小时和36分钟前的23:00 UTC
预报有效从17日的 00点(UTC)到 18日的 06点(UTC)
风速7节,风向北转东北
能见度10公里或以上
1500米以下无云,无积雨云
短暂存在
从 17日的 04点(UTC)到 17日的 09点(UTC)
能見度: 5000
霾,

TAF: HELX 162300Z 1700/1806 02007KT CAVOK TEMPO 1704/1709 5000 HZ NSC

超过4000个机场的气象观测和天气预报(METAR&TAF报告)。

可查询的气象台以黄色和红色小点在地图上表示。

将鼠标移到小点上方,可查看气象台名称。

然后点击查看天气观测和预报。

如需切换地图:点击带黑十字的绿色按钮放大地图;点击带横线的绿色按钮缩小地图;或者点击绿色箭头查看邻近地区的地图。


METAR-TAF: